Terminal Aerodrome Forecast
Issued by NWS

Home | Current Version | Previous Version | Text Only | Print | Product List | Glossary On
Versions: 1 2 3 4 5 6 7 8 9 10 11 12 13 14
000
FTUS41 KCAR 140600 AAA
TAFBHB
TAF AMD
KBHB 140644Z 1407/1506 20011KT 3SM BR OVC005
     FM141000 21010KT 3SM BR OVC005
     FM141300 22009KT P6SM BKN008
     FM141400 22009KT P6SM BKN015
     FM141600 22010KT P6SM BKN250
      AMD LTD TO CLD VIS AND WIND=

USA.gov is the U.S. government's official web portal to all federal, state and local government web resources and services.